sensor_id;sensor_type;location;lat;lon;timestamp;P1;durP1;ratioP1;P2;durP2;ratioP2
42118;SDS011;27783;42.782;23.274;2023-01-24T00:01:00;6.43;;;5.30;;
42118;SDS011;27783;42.782;23.274;2023-01-24T00:03:26;6.22;;;4.72;;
42118;SDS011;27783;42.782;23.274;2023-01-24T00:05:53;6.68;;;3.72;;
42118;SDS011;27783;42.782;23.274;2023-01-24T00:08:20;5.18;;;3.28;;
42118;SDS011;27783;42.782;23.274;2023-01-24T00:11:00;4.55;;;3.45;;
42118;SDS011;27783;42.782;23.274;2023-01-24T00:13:30;4.32;;;2.55;;
42118;SDS011;27783;42.782;23.274;2023-01-24T00:16:16;3.78;;;2.78;;
42118;SDS011;27783;42.782;23.274;2023-01-24T00:18:43;5.97;;;3.75;;
42118;SDS011;27783;42.782;23.274;2023-01-24T00:21:15;4.18;;;3.40;;
42118;SDS011;27783;42.782;23.274;2023-01-24T00:23:48;4.00;;;2.83;;
42118;SDS011;27783;42.782;23.274;2023-01-24T00:26:20;4.45;;;3.85;;
42118;SDS011;27783;42.782;23.274;2023-01-24T00:28:48;6.22;;;3.65;;
42118;SDS011;27783;42.782;23.274;2023-01-24T00:31:14;4.20;;;3.28;;
42118;SDS011;27783;42.782;23.274;2023-01-24T00:33:41;4.38;;;3.03;;
42118;SDS011;27783;42.782;23.274;2023-01-24T00:36:06;4.75;;;3.47;;
42118;SDS011;27783;42.782;23.274;2023-01-24T00:38:32;4.53;;;3.42;;
42118;SDS011;27783;42.782;23.274;2023-01-24T00:40:59;5.78;;;3.13;;
42118;SDS011;27783;42.782;23.274;2023-01-24T00:43:26;5.35;;;3.90;;
42118;SDS011;27783;42.782;23.274;2023-01-24T00:45:52;3.90;;;2.50;;
42118;SDS011;27783;42.782;23.274;2023-01-24T00:48:18;4.95;;;3.70;;
42118;SDS011;27783;42.782;23.274;2023-01-24T00:50:44;4.88;;;2.95;;
42118;SDS011;27783;42.782;23.274;2023-01-24T00:53:10;4.25;;;2.00;;
42118;SDS011;27783;42.782;23.274;2023-01-24T00:55:45;4.65;;;3.55;;
42118;SDS011;27783;42.782;23.274;2023-01-24T00:58:13;4.45;;;2.50;;
42118;SDS011;27783;42.782;23.274;2023-01-24T01:00:38;3.47;;;2.67;;
42118;SDS011;27783;42.782;23.274;2023-01-24T01:03:06;3.53;;;3.22;;
42118;SDS011;27783;42.782;23.274;2023-01-24T01:05:35;5.82;;;3.03;;
42118;SDS011;27783;42.782;23.274;2023-01-24T01:08:01;4.75;;;2.45;;
42118;SDS011;27783;42.782;23.274;2023-01-24T01:10:27;4.78;;;2.55;;
42118;SDS011;27783;42.782;23.274;2023-01-24T01:12:53;4.68;;;2.42;;
42118;SDS011;27783;42.782;23.274;2023-01-24T01:15:19;2.95;;;2.17;;
42118;SDS011;27783;42.782;23.274;2023-01-24T01:17:45;4.28;;;2.47;;
42118;SDS011;27783;42.782;23.274;2023-01-24T01:20:10;2.50;;;2.00;;
42118;SDS011;27783;42.782;23.274;2023-01-24T01:22:37;4.93;;;3.22;;
42118;SDS011;27783;42.782;23.274;2023-01-24T01:25:05;5.10;;;2.40;;
42118;SDS011;27783;42.782;23.274;2023-01-24T01:27:33;4.70;;;2.53;;
42118;SDS011;27783;42.782;23.274;2023-01-24T01:29:58;4.25;;;2.58;;
42118;SDS011;27783;42.782;23.274;2023-01-24T01:32:25;3.30;;;3.00;;
42118;SDS011;27783;42.782;23.274;2023-01-24T01:34:51;4.68;;;2.65;;
42118;SDS011;27783;42.782;23.274;2023-01-24T01:37:16;10.38;;;3.30;;
42118;SDS011;27783;42.782;23.274;2023-01-24T01:39:43;6.82;;;2.28;;
42118;SDS011;27783;42.782;23.274;2023-01-24T01:42:10;2.83;;;1.88;;
42118;SDS011;27783;42.782;23.274;2023-01-24T01:44:38;2.88;;;2.20;;
42118;SDS011;27783;42.782;23.274;2023-01-24T01:49:46;3.38;;;2.08;;
42118;SDS011;27783;42.782;23.274;2023-01-24T01:52:20;4.47;;;2.63;;
42118;SDS011;27783;42.782;23.274;2023-01-24T01:54:50;10.38;;;3.92;;
42118;SDS011;27783;42.782;23.274;2023-01-24T01:57:30;3.90;;;2.95;;
42118;SDS011;27783;42.782;23.274;2023-01-24T02:00:09;2.60;;;1.90;;
42118;SDS011;27783;42.782;23.274;2023-01-24T02:02:38;3.47;;;2.75;;
42118;SDS011;27783;42.782;23.274;2023-01-24T02:05:06;5.55;;;2.80;;
42118;SDS011;27783;42.782;23.274;2023-01-24T02:10:17;5.43;;;3.03;;
42118;SDS011;27783;42.782;23.274;2023-01-24T02:12:44;3.78;;;2.42;;
42118;SDS011;27783;42.782;23.274;2023-01-24T02:15:13;6.32;;;3.60;;
42118;SDS011;27783;42.782;23.274;2023-01-24T02:18:00;4.43;;;2.47;;
42118;SDS011;27783;42.782;23.274;2023-01-24T02:20:32;4.43;;;2.42;;
42118;SDS011;27783;42.782;23.274;2023-01-24T02:29:15;4.70;;;2.10;;
42118;SDS011;27783;42.782;23.274;2023-01-24T02:34:22;4.47;;;2.10;;
42118;SDS011;27783;42.782;23.274;2023-01-24T02:37:10;2.85;;;2.10;;
42118;SDS011;27783;42.782;23.274;2023-01-24T02:42:17;3.42;;;2.47;;
42118;SDS011;27783;42.782;23.274;2023-01-24T02:45:02;2.75;;;1.95;;
42118;SDS011;27783;42.782;23.274;2023-01-24T02:47:48;2.47;;;1.90;;
42118;SDS011;27783;42.782;23.274;2023-01-24T02:50:16;4.70;;;2.42;;
42118;SDS011;27783;42.782;23.274;2023-01-24T02:52:46;5.82;;;2.60;;
42118;SDS011;27783;42.782;23.274;2023-01-24T02:55:31;2.97;;;1.70;;
42118;SDS011;27783;42.782;23.274;2023-01-24T02:57:58;3.70;;;2.25;;
42118;SDS011;27783;42.782;23.274;2023-01-24T03:00:35;3.63;;;2.33;;
42118;SDS011;27783;42.782;23.274;2023-01-24T03:03:02;3.38;;;1.60;;
42118;SDS011;27783;42.782;23.274;2023-01-24T03:05:30;5.47;;;3.75;;
42118;SDS011;27783;42.782;23.274;2023-01-24T03:08:32;4.40;;;2.45;;
42118;SDS011;27783;42.782;23.274;2023-01-24T03:10:59;6.95;;;2.53;;
42118;SDS011;27783;42.782;23.274;2023-01-24T03:13:25;3.22;;;1.80;;
42118;SDS011;27783;42.782;23.274;2023-01-24T03:16:09;3.40;;;1.85;;
42118;SDS011;27783;42.782;23.274;2023-01-24T03:18:54;3.72;;;2.30;;
42118;SDS011;27783;42.782;23.274;2023-01-24T03:21:38;3.15;;;2.33;;
42118;SDS011;27783;42.782;23.274;2023-01-24T03:24:37;2.63;;;2.10;;
42118;SDS011;27783;42.782;23.274;2023-01-24T03:27:22;4.18;;;2.65;;
42118;SDS011;27783;42.782;23.274;2023-01-24T03:30:09;5.55;;;3.25;;
42118;SDS011;27783;42.782;23.274;2023-01-24T03:33:03;5.25;;;3.22;;
42118;SDS011;27783;42.782;23.274;2023-01-24T03:35:48;4.65;;;2.50;;
42118;SDS011;27783;42.782;23.274;2023-01-24T03:38:24;4.28;;;2.22;;
42118;SDS011;27783;42.782;23.274;2023-01-24T03:41:10;3.72;;;2.50;;
42118;SDS011;27783;42.782;23.274;2023-01-24T03:43:37;3.60;;;2.00;;
42118;SDS011;27783;42.782;23.274;2023-01-24T03:46:02;6.43;;;2.35;;
42118;SDS011;27783;42.782;23.274;2023-01-24T03:48:30;9.32;;;2.65;;
42118;SDS011;27783;42.782;23.274;2023-01-24T03:51:02;2.75;;;1.83;;
42118;SDS011;27783;42.782;23.274;2023-01-24T03:53:47;5.95;;;2.90;;
42118;SDS011;27783;42.782;23.274;2023-01-24T03:56:12;7.85;;;2.95;;
42118;SDS011;27783;42.782;23.274;2023-01-24T03:58:38;6.50;;;2.83;;
42118;SDS011;27783;42.782;23.274;2023-01-24T04:01:04;4.28;;;2.67;;
42118;SDS011;27783;42.782;23.274;2023-01-24T04:03:30;3.35;;;2.13;;
42118;SDS011;27783;42.782;23.274;2023-01-24T04:05:58;4.03;;;2.47;;
42118;SDS011;27783;42.782;23.274;2023-01-24T04:08:25;9.70;;;3.38;;
42118;SDS011;27783;42.782;23.274;2023-01-24T04:10:50;3.17;;;2.10;;
42118;SDS011;27783;42.782;23.274;2023-01-24T04:13:16;4.78;;;2.25;;
42118;SDS011;27783;42.782;23.274;2023-01-24T04:15:44;4.45;;;3.08;;
42118;SDS011;27783;42.782;23.274;2023-01-24T04:18:14;3.50;;;2.08;;
42118;SDS011;27783;42.782;23.274;2023-01-24T04:20:43;3.78;;;2.45;;
42118;SDS011;27783;42.782;23.274;2023-01-24T04:23:09;3.47;;;2.35;;
42118;SDS011;27783;42.782;23.274;2023-01-24T04:25:36;4.20;;;2.13;;
42118;SDS011;27783;42.782;23.274;2023-01-24T04:28:31;3.45;;;2.05;;
42118;SDS011;27783;42.782;23.274;2023-01-24T04:31:02;3.85;;;2.30;;
42118;SDS011;27783;42.782;23.274;2023-01-24T04:33:28;4.28;;;2.17;;
42118;SDS011;27783;42.782;23.274;2023-01-24T04:35:57;3.92;;;2.28;;
42118;SDS011;27783;42.782;23.274;2023-01-24T04:38:23;4.32;;;2.28;;
42118;SDS011;27783;42.782;23.274;2023-01-24T04:41:00;17.95;;;6.20;;
42118;SDS011;27783;42.782;23.274;2023-01-24T04:43:40;17.10;;;7.13;;
42118;SDS011;27783;42.782;23.274;2023-01-24T04:46:07;10.05;;;5.43;;
42118;SDS011;27783;42.782;23.274;2023-01-24T04:48:34;20.73;;;9.23;;
42118;SDS011;27783;42.782;23.274;2023-01-24T04:51:00;8.40;;;3.40;;
42118;SDS011;27783;42.782;23.274;2023-01-24T04:53:28;9.35;;;4.47;;
42118;SDS011;27783;42.782;23.274;2023-01-24T04:56:00;6.38;;;3.05;;
42118;SDS011;27783;42.782;23.274;2023-01-24T04:58:26;4.93;;;2.95;;
42118;SDS011;27783;42.782;23.274;2023-01-24T05:00:52;37.03;;;15.60;;
42118;SDS011;27783;42.782;23.274;2023-01-24T05:03:20;12.07;;;6.47;;
42118;SDS011;27783;42.782;23.274;2023-01-24T05:05:49;12.05;;;5.30;;
42118;SDS011;27783;42.782;23.274;2023-01-24T05:08:15;37.40;;;14.05;;
42118;SDS011;27783;42.782;23.274;2023-01-24T05:10:41;15.40;;;10.32;;
42118;SDS011;27783;42.782;23.274;2023-01-24T05:13:06;5.35;;;2.80;;
42118;SDS011;27783;42.782;23.274;2023-01-24T05:15:32;5.05;;;3.00;;
42118;SDS011;27783;42.782;23.274;2023-01-24T05:17:57;12.65;;;7.07;;
42118;SDS011;27783;42.782;23.274;2023-01-24T05:20:22;27.73;;;15.15;;
42118;SDS011;27783;42.782;23.274;2023-01-24T05:22:48;37.72;;;23.13;;
42118;SDS011;27783;42.782;23.274;2023-01-24T05:25:17;8.20;;;5.50;;
42118;SDS011;27783;42.782;23.274;2023-01-24T05:27:43;4.65;;;3.25;;
42118;SDS011;27783;42.782;23.274;2023-01-24T05:30:09;12.93;;;7.13;;
42118;SDS011;27783;42.782;23.274;2023-01-24T05:32:36;11.07;;;5.65;;
42118;SDS011;27783;42.782;23.274;2023-01-24T05:35:02;10.68;;;5.72;;
42118;SDS011;27783;42.782;23.274;2023-01-24T05:37:28;10.27;;;5.68;;
42118;SDS011;27783;42.782;23.274;2023-01-24T05:39:53;9.82;;;6.38;;
42118;SDS011;27783;42.782;23.274;2023-01-24T05:42:18;8.40;;;4.93;;
42118;SDS011;27783;42.782;23.274;2023-01-24T05:44:44;6.28;;;4.35;;
42118;SDS011;27783;42.782;23.274;2023-01-24T05:47:09;4.53;;;3.60;;
42118;SDS011;27783;42.782;23.274;2023-01-24T05:49:34;6.28;;;4.03;;
42118;SDS011;27783;42.782;23.274;2023-01-24T05:52:00;3.28;;;2.45;;
42118;SDS011;27783;42.782;23.274;2023-01-24T05:54:25;2.92;;;1.80;;
42118;SDS011;27783;42.782;23.274;2023-01-24T05:56:51;4.18;;;3.00;;
42118;SDS011;27783;42.782;23.274;2023-01-24T05:59:16;3.20;;;1.52;;
42118;SDS011;27783;42.782;23.274;2023-01-24T06:01:42;2.53;;;1.70;;
42118;SDS011;27783;42.782;23.274;2023-01-24T06:04:07;4.50;;;3.40;;
42118;SDS011;27783;42.782;23.274;2023-01-24T06:06:32;5.05;;;3.40;;
42118;SDS011;27783;42.782;23.274;2023-01-24T06:08:58;4.85;;;3.15;;
42118;SDS011;27783;42.782;23.274;2023-01-24T06:11:24;21.80;;;12.65;;
42118;SDS011;27783;42.782;23.274;2023-01-24T06:13:50;8.52;;;5.25;;
42118;SDS011;27783;42.782;23.274;2023-01-24T06:16:19;6.88;;;5.07;;
42118;SDS011;27783;42.782;23.274;2023-01-24T06:18:46;8.15;;;4.45;;
42118;SDS011;27783;42.782;23.274;2023-01-24T06:23:58;4.05;;;2.92;;
42118;SDS011;27783;42.782;23.274;2023-01-24T06:26:24;4.47;;;2.38;;
42118;SDS011;27783;42.782;23.274;2023-01-24T06:28:50;3.45;;;2.30;;
42118;SDS011;27783;42.782;23.274;2023-01-24T06:39:39;7.22;;;3.38;;
42118;SDS011;27783;42.782;23.274;2023-01-24T06:42:14;8.80;;;6.57;;
42118;SDS011;27783;42.782;23.274;2023-01-24T06:44:41;45.05;;;31.95;;
42118;SDS011;27783;42.782;23.274;2023-01-24T06:47:08;15.68;;;11.38;;
42118;SDS011;27783;42.782;23.274;2023-01-24T06:49:35;14.90;;;13.07;;
42118;SDS011;27783;42.782;23.274;2023-01-24T06:52:01;5.60;;;4.32;;
42118;SDS011;27783;42.782;23.274;2023-01-24T06:54:26;5.55;;;3.22;;
42118;SDS011;27783;42.782;23.274;2023-01-24T06:56:52;4.72;;;3.53;;
42118;SDS011;27783;42.782;23.274;2023-01-24T06:59:17;5.45;;;4.32;;
42118;SDS011;27783;42.782;23.274;2023-01-24T07:01:44;6.88;;;2.92;;
42118;SDS011;27783;42.782;23.274;2023-01-24T07:04:10;5.15;;;3.47;;
42118;SDS011;27783;42.782;23.274;2023-01-24T07:06:35;7.53;;;6.78;;
42118;SDS011;27783;42.782;23.274;2023-01-24T07:09:00;22.63;;;14.32;;
42118;SDS011;27783;42.782;23.274;2023-01-24T07:11:26;4.78;;;3.53;;
42118;SDS011;27783;42.782;23.274;2023-01-24T07:13:51;4.20;;;1.95;;
42118;SDS011;27783;42.782;23.274;2023-01-24T07:16:16;4.45;;;2.70;;
42118;SDS011;27783;42.782;23.274;2023-01-24T07:18:42;3.75;;;2.28;;
42118;SDS011;27783;42.782;23.274;2023-01-24T07:21:07;7.50;;;5.63;;
42118;SDS011;27783;42.782;23.274;2023-01-24T07:23:33;3.53;;;2.40;;
42118;SDS011;27783;42.782;23.274;2023-01-24T07:26:00;12.15;;;11.13;;
42118;SDS011;27783;42.782;23.274;2023-01-24T07:28:26;10.38;;;5.82;;
42118;SDS011;27783;42.782;23.274;2023-01-24T07:30:52;6.25;;;5.50;;
42118;SDS011;27783;42.782;23.274;2023-01-24T07:33:17;3.75;;;2.65;;
42118;SDS011;27783;42.782;23.274;2023-01-24T07:35:43;3.17;;;2.35;;
42118;SDS011;27783;42.782;23.274;2023-01-24T07:38:10;3.65;;;2.22;;
42118;SDS011;27783;42.782;23.274;2023-01-24T07:40:38;3.30;;;1.85;;
42118;SDS011;27783;42.782;23.274;2023-01-24T07:43:04;10.68;;;4.32;;
42118;SDS011;27783;42.782;23.274;2023-01-24T07:45:30;5.47;;;4.25;;
42118;SDS011;27783;42.782;23.274;2023-01-24T07:47:57;8.75;;;7.53;;
42118;SDS011;27783;42.782;23.274;2023-01-24T07:52:53;8.20;;;6.60;;
42118;SDS011;27783;42.782;23.274;2023-01-24T07:55:19;8.25;;;7.43;;
42118;SDS011;27783;42.782;23.274;2023-01-24T07:57:45;7.68;;;6.90;;
42118;SDS011;27783;42.782;23.274;2023-01-24T08:00:11;23.17;;;19.42;;
42118;SDS011;27783;42.782;23.274;2023-01-24T08:02:37;15.40;;;13.88;;
42118;SDS011;27783;42.782;23.274;2023-01-24T08:05:02;13.43;;;11.88;;
42118;SDS011;27783;42.782;23.274;2023-01-24T08:07:28;12.20;;;11.00;;
42118;SDS011;27783;42.782;23.274;2023-01-24T08:09:53;15.05;;;13.30;;
42118;SDS011;27783;42.782;23.274;2023-01-24T08:12:19;16.08;;;12.73;;
42118;SDS011;27783;42.782;23.274;2023-01-24T08:14:44;17.65;;;12.70;;
42118;SDS011;27783;42.782;23.274;2023-01-24T08:17:10;17.13;;;14.70;;
42118;SDS011;27783;42.782;23.274;2023-01-24T08:19:35;11.63;;;8.70;;
42118;SDS011;27783;42.782;23.274;2023-01-24T08:22:01;8.75;;;6.10;;
42118;SDS011;27783;42.782;23.274;2023-01-24T08:24:27;8.75;;;5.97;;
42118;SDS011;27783;42.782;23.274;2023-01-24T08:26:53;21.38;;;15.05;;
42118;SDS011;27783;42.782;23.274;2023-01-24T08:29:18;27.92;;;21.58;;
42118;SDS011;27783;42.782;23.274;2023-01-24T08:31:44;8.68;;;7.43;;
42118;SDS011;27783;42.782;23.274;2023-01-24T08:34:09;17.63;;;13.82;;
42118;SDS011;27783;42.782;23.274;2023-01-24T08:36:35;10.95;;;7.57;;
42118;SDS011;27783;42.782;23.274;2023-01-24T08:39:01;10.13;;;6.57;;
42118;SDS011;27783;42.782;23.274;2023-01-24T08:41:28;14.18;;;8.20;;
42118;SDS011;27783;42.782;23.274;2023-01-24T08:43:53;7.30;;;5.47;;
42118;SDS011;27783;42.782;23.274;2023-01-24T08:46:18;10.32;;;4.65;;
42118;SDS011;27783;42.782;23.274;2023-01-24T08:48:44;7.88;;;5.10;;
42118;SDS011;27783;42.782;23.274;2023-01-24T08:51:09;10.68;;;7.05;;
42118;SDS011;27783;42.782;23.274;2023-01-24T08:53:35;12.80;;;7.53;;
42118;SDS011;27783;42.782;23.274;2023-01-24T08:56:00;11.43;;;9.50;;
42118;SDS011;27783;42.782;23.274;2023-01-24T08:58:25;11.68;;;7.50;;
42118;SDS011;27783;42.782;23.274;2023-01-24T09:00:51;7.30;;;5.25;;
42118;SDS011;27783;42.782;23.274;2023-01-24T09:03:17;7.70;;;3.80;;
42118;SDS011;27783;42.782;23.274;2023-01-24T09:05:43;9.27;;;4.10;;
42118;SDS011;27783;42.782;23.274;2023-01-24T09:08:09;10.75;;;6.03;;
42118;SDS011;27783;42.782;23.274;2023-01-24T09:10:34;9.18;;;6.47;;
42118;SDS011;27783;42.782;23.274;2023-01-24T09:13:00;6.97;;;5.35;;
42118;SDS011;27783;42.782;23.274;2023-01-24T09:15:27;10.93;;;8.07;;
42118;SDS011;27783;42.782;23.274;2023-01-24T09:17:52;12.73;;;9.90;;
42118;SDS011;27783;42.782;23.274;2023-01-24T09:20:18;13.40;;;8.55;;
42118;SDS011;27783;42.782;23.274;2023-01-24T09:22:43;13.73;;;7.13;;
42118;SDS011;27783;42.782;23.274;2023-01-24T09:25:09;9.30;;;5.93;;
42118;SDS011;27783;42.782;23.274;2023-01-24T09:27:35;10.70;;;8.02;;
42118;SDS011;27783;42.782;23.274;2023-01-24T09:30:00;23.95;;;13.13;;
42118;SDS011;27783;42.782;23.274;2023-01-24T09:32:26;15.25;;;8.65;;
42118;SDS011;27783;42.782;23.274;2023-01-24T09:34:51;14.82;;;9.65;;
42118;SDS011;27783;42.782;23.274;2023-01-24T09:37:17;27.75;;;14.25;;
42118;SDS011;27783;42.782;23.274;2023-01-24T09:39:44;12.25;;;6.60;;
42118;SDS011;27783;42.782;23.274;2023-01-24T09:42:11;8.35;;;4.93;;
42118;SDS011;27783;42.782;23.274;2023-01-24T09:47:23;4.78;;;3.83;;
42118;SDS011;27783;42.782;23.274;2023-01-24T09:49:59;17.83;;;13.73;;
42118;SDS011;27783;42.782;23.274;2023-01-24T09:52:34;6.57;;;4.53;;
42118;SDS011;27783;42.782;23.274;2023-01-24T09:57:47;7.20;;;3.50;;
42118;SDS011;27783;42.782;23.274;2023-01-24T10:03:18;5.00;;;3.65;;
42118;SDS011;27783;42.782;23.274;2023-01-24T10:05:55;8.98;;;4.93;;
42118;SDS011;27783;42.782;23.274;2023-01-24T10:16:41;5.30;;;4.03;;
42118;SDS011;27783;42.782;23.274;2023-01-24T10:25:31;66.10;;;59.33;;
42118;SDS011;27783;42.782;23.274;2023-01-24T10:27:52;12.65;;;8.07;;
42118;SDS011;27783;42.782;23.274;2023-01-24T10:30:26;24.55;;;21.55;;
42118;SDS011;27783;42.782;23.274;2023-01-24T10:32:58;14.60;;;10.32;;
42118;SDS011;27783;42.782;23.274;2023-01-24T10:35:29;19.55;;;13.45;;
42118;SDS011;27783;42.782;23.274;2023-01-24T10:38:00;14.55;;;11.27;;
42118;SDS011;27783;42.782;23.274;2023-01-24T10:40:30;27.65;;;21.50;;
42118;SDS011;27783;42.782;23.274;2023-01-24T10:42:55;16.20;;;8.35;;
42118;SDS011;27783;42.782;23.274;2023-01-24T10:50:34;9.68;;;6.90;;
42118;SDS011;27783;42.782;23.274;2023-01-24T10:53:11;14.27;;;11.27;;
42118;SDS011;27783;42.782;23.274;2023-01-24T10:55:48;17.05;;;13.35;;
42118;SDS011;27783;42.782;23.274;2023-01-24T11:00:47;12.30;;;7.68;;
42118;SDS011;27783;42.782;23.274;2023-01-24T11:03:30;11.30;;;7.90;;
42118;SDS011;27783;42.782;23.274;2023-01-24T11:06:00;16.88;;;12.48;;
42118;SDS011;27783;42.782;23.274;2023-01-24T11:08:36;10.65;;;6.95;;
42118;SDS011;27783;42.782;23.274;2023-01-24T11:11:03;5.93;;;5.43;;
42118;SDS011;27783;42.782;23.274;2023-01-24T11:13:44;9.07;;;6.78;;
42118;SDS011;27783;42.782;23.274;2023-01-24T11:18:49;8.98;;;6.15;;
42118;SDS011;27783;42.782;23.274;2023-01-24T11:21:20;12.32;;;8.32;;
42118;SDS011;27783;42.782;23.274;2023-01-24T11:23:45;3.88;;;3.50;;
42118;SDS011;27783;42.782;23.274;2023-01-24T11:26:40;7.28;;;6.20;;
42118;SDS011;27783;42.782;23.274;2023-01-24T11:29:18;5.25;;;4.75;;
42118;SDS011;27783;42.782;23.274;2023-01-24T11:31:47;6.80;;;4.28;;
42118;SDS011;27783;42.782;23.274;2023-01-24T11:37:10;6.65;;;4.88;;
42118;SDS011;27783;42.782;23.274;2023-01-24T11:42:28;2.75;;;2.03;;
42118;SDS011;27783;42.782;23.274;2023-01-24T11:45:03;2.05;;;1.05;;
42118;SDS011;27783;42.782;23.274;2023-01-24T11:47:33;11.35;;;6.35;;
42118;SDS011;27783;42.782;23.274;2023-01-24T12:04:17;10.30;;;6.50;;
42118;SDS011;27783;42.782;23.274;2023-01-24T12:07:11;8.95;;;5.22;;
42118;SDS011;27783;42.782;23.274;2023-01-24T12:09:44;12.48;;;9.45;;
42118;SDS011;27783;42.782;23.274;2023-01-24T12:12:17;7.38;;;4.93;;
42118;SDS011;27783;42.782;23.274;2023-01-24T12:22:34;15.23;;;9.00;;
42118;SDS011;27783;42.782;23.274;2023-01-24T12:25:02;9.18;;;6.55;;
42118;SDS011;27783;42.782;23.274;2023-01-24T12:27:35;11.05;;;7.20;;
42118;SDS011;27783;42.782;23.274;2023-01-24T12:30:44;7.10;;;5.05;;
42118;SDS011;27783;42.782;23.274;2023-01-24T12:33:46;17.77;;;10.32;;
42118;SDS011;27783;42.782;23.274;2023-01-24T12:35:47;11.05;;;6.53;;
42118;SDS011;27783;42.782;23.274;2023-01-24T12:38:17;13.73;;;10.02;;
42118;SDS011;27783;42.782;23.274;2023-01-24T12:43:53;10.73;;;7.68;;
42118;SDS011;27783;42.782;23.274;2023-01-24T12:51:56;9.93;;;6.97;;
42118;SDS011;27783;42.782;23.274;2023-01-24T12:57:25;29.67;;;16.75;;
42118;SDS011;27783;42.782;23.274;2023-01-24T12:59:55;12.13;;;8.70;;
42118;SDS011;27783;42.782;23.274;2023-01-24T13:08:21;5.07;;;4.40;;
42118;SDS011;27783;42.782;23.274;2023-01-24T13:10:59;3.63;;;3.28;;
42118;SDS011;27783;42.782;23.274;2023-01-24T13:13:33;2.17;;;1.80;;
42118;SDS011;27783;42.782;23.274;2023-01-24T13:18:49;3.13;;;2.83;;
42118;SDS011;27783;42.782;23.274;2023-01-24T13:24:29;9.98;;;7.78;;
42118;SDS011;27783;42.782;23.274;2023-01-24T13:29:49;6.90;;;5.50;;
42118;SDS011;27783;42.782;23.274;2023-01-24T13:32:21;7.82;;;5.60;;
42118;SDS011;27783;42.782;23.274;2023-01-24T13:34:49;5.75;;;3.58;;
42118;SDS011;27783;42.782;23.274;2023-01-24T13:40:01;7.37;;;5.23;;
42118;SDS011;27783;42.782;23.274;2023-01-24T13:42:34;23.50;;;11.13;;
42118;SDS011;27783;42.782;23.274;2023-01-24T13:45:47;10.45;;;6.38;;
42118;SDS011;27783;42.782;23.274;2023-01-24T13:47:50;30.27;;;14.38;;
42118;SDS011;27783;42.782;23.274;2023-01-24T13:50:20;7.53;;;4.35;;
42118;SDS011;27783;42.782;23.274;2023-01-24T13:52:47;11.95;;;8.35;;
42118;SDS011;27783;42.782;23.274;2023-01-24T14:00:55;7.93;;;5.38;;
42118;SDS011;27783;42.782;23.274;2023-01-24T14:24:26;13.13;;;9.13;;
42118;SDS011;27783;42.782;23.274;2023-01-24T14:27:17;6.10;;;4.50;;
42118;SDS011;27783;42.782;23.274;2023-01-24T14:29:54;8.07;;;6.90;;
42118;SDS011;27783;42.782;23.274;2023-01-24T14:32:37;13.15;;;10.25;;
42118;SDS011;27783;42.782;23.274;2023-01-24T14:38:09;55.47;;;34.13;;
42118;SDS011;27783;42.782;23.274;2023-01-24T14:40:38;22.73;;;13.65;;
42118;SDS011;27783;42.782;23.274;2023-01-24T14:45:32;53.67;;;27.70;;
42118;SDS011;27783;42.782;23.274;2023-01-24T14:47:59;29.55;;;15.77;;
42118;SDS011;27783;42.782;23.274;2023-01-24T14:50:27;28.58;;;14.52;;
42118;SDS011;27783;42.782;23.274;2023-01-24T14:52:58;47.75;;;19.85;;
42118;SDS011;27783;42.782;23.274;2023-01-24T14:58:12;19.73;;;10.50;;
42118;SDS011;27783;42.782;23.274;2023-01-24T15:00:44;27.17;;;12.75;;
42118;SDS011;27783;42.782;23.274;2023-01-24T15:03:14;79.47;;;23.45;;
42118;SDS011;27783;42.782;23.274;2023-01-24T15:05:47;68.15;;;23.80;;
42118;SDS011;27783;42.782;23.274;2023-01-24T15:08:23;53.13;;;24.02;;
42118;SDS011;27783;42.782;23.274;2023-01-24T15:10:54;109.38;;;42.03;;
42118;SDS011;27783;42.782;23.274;2023-01-24T15:13:24;126.35;;;45.72;;
42118;SDS011;27783;42.782;23.274;2023-01-24T15:15:53;96.57;;;34.65;;
42118;SDS011;27783;42.782;23.274;2023-01-24T15:21:00;70.95;;;25.02;;
42118;SDS011;27783;42.782;23.274;2023-01-24T15:23:29;35.87;;;14.73;;
42118;SDS011;27783;42.782;23.274;2023-01-24T15:25:56;84.25;;;45.17;;
42118;SDS011;27783;42.782;23.274;2023-01-24T15:28:29;68.40;;;33.38;;
42118;SDS011;27783;42.782;23.274;2023-01-24T15:30:56;19.60;;;11.82;;
42118;SDS011;27783;42.782;23.274;2023-01-24T15:33:39;10.73;;;7.53;;
42118;SDS011;27783;42.782;23.274;2023-01-24T15:36:23;17.17;;;12.05;;
42118;SDS011;27783;42.782;23.274;2023-01-24T15:38:51;53.60;;;27.98;;
42118;SDS011;27783;42.782;23.274;2023-01-24T15:44:11;42.67;;;17.95;;
42118;SDS011;27783;42.782;23.274;2023-01-24T15:46:39;42.60;;;23.42;;
42118;SDS011;27783;42.782;23.274;2023-01-24T15:49:27;48.60;;;22.60;;
42118;SDS011;27783;42.782;23.274;2023-01-24T15:54:28;32.08;;;15.32;;
42118;SDS011;27783;42.782;23.274;2023-01-24T15:56:54;35.05;;;21.98;;
42118;SDS011;27783;42.782;23.274;2023-01-24T15:59:22;28.63;;;17.20;;
42118;SDS011;27783;42.782;23.274;2023-01-24T16:01:48;22.77;;;14.20;;
42118;SDS011;27783;42.782;23.274;2023-01-24T16:04:15;35.47;;;21.33;;
42118;SDS011;27783;42.782;23.274;2023-01-24T16:06:43;45.75;;;22.60;;
42118;SDS011;27783;42.782;23.274;2023-01-24T16:09:10;44.63;;;25.85;;
42118;SDS011;27783;42.782;23.274;2023-01-24T16:11:37;18.63;;;14.45;;
42118;SDS011;27783;42.782;23.274;2023-01-24T16:14:05;22.17;;;14.68;;
42118;SDS011;27783;42.782;23.274;2023-01-24T16:16:32;27.27;;;19.50;;
42118;SDS011;27783;42.782;23.274;2023-01-24T16:18:59;17.05;;;12.48;;
42118;SDS011;27783;42.782;23.274;2023-01-24T16:21:25;31.30;;;21.45;;
42118;SDS011;27783;42.782;23.274;2023-01-24T16:23:50;8.77;;;7.53;;
42118;SDS011;27783;42.782;23.274;2023-01-24T16:26:18;15.23;;;13.18;;
42118;SDS011;27783;42.782;23.274;2023-01-24T16:28:46;9.10;;;7.40;;
42118;SDS011;27783;42.782;23.274;2023-01-24T16:31:12;14.10;;;8.80;;
42118;SDS011;27783;42.782;23.274;2023-01-24T16:33:39;12.35;;;9.38;;
42118;SDS011;27783;42.782;23.274;2023-01-24T16:36:05;31.05;;;20.80;;
42118;SDS011;27783;42.782;23.274;2023-01-24T16:38:32;14.05;;;11.32;;
42118;SDS011;27783;42.782;23.274;2023-01-24T16:40:57;37.47;;;19.13;;
42118;SDS011;27783;42.782;23.274;2023-01-24T16:43:23;34.70;;;17.90;;
42118;SDS011;27783;42.782;23.274;2023-01-24T16:45:51;55.00;;;29.42;;
42118;SDS011;27783;42.782;23.274;2023-01-24T16:48:17;98.95;;;56.13;;
42118;SDS011;27783;42.782;23.274;2023-01-24T16:50:43;22.73;;;14.80;;
42118;SDS011;27783;42.782;23.274;2023-01-24T16:53:13;98.93;;;63.33;;
42118;SDS011;27783;42.782;23.274;2023-01-24T16:55:39;42.40;;;24.60;;
42118;SDS011;27783;42.782;23.274;2023-01-24T16:58:05;28.33;;;21.65;;
42118;SDS011;27783;42.782;23.274;2023-01-24T17:00:31;46.35;;;30.33;;
42118;SDS011;27783;42.782;23.274;2023-01-24T17:02:58;55.88;;;38.70;;
42118;SDS011;27783;42.782;23.274;2023-01-24T17:05:25;7.07;;;6.05;;
42118;SDS011;27783;42.782;23.274;2023-01-24T17:07:52;18.52;;;14.23;;
42118;SDS011;27783;42.782;23.274;2023-01-24T17:10:18;18.30;;;14.57;;
42118;SDS011;27783;42.782;23.274;2023-01-24T17:12:43;16.77;;;13.57;;
42118;SDS011;27783;42.782;23.274;2023-01-24T17:15:09;7.60;;;6.20;;
42118;SDS011;27783;42.782;23.274;2023-01-24T17:17:36;18.60;;;12.27;;
42118;SDS011;27783;42.782;23.274;2023-01-24T17:20:23;13.32;;;7.88;;
42118;SDS011;27783;42.782;23.274;2023-01-24T17:22:51;16.65;;;10.73;;